sensor_id;sensor_type;location;lat;lon;timestamp;pressure;altitude;pressure_sealevel;temperature;humidity
35307;BME280;21420;52.196;21.416;2022-09-09T00:09:39;100078.64;;;10.75;54.10
35307;BME280;21420;52.196;21.416;2022-09-09T00:12:15;100080.00;;;10.75;54.30
35307;BME280;21420;52.196;21.416;2022-09-09T00:20:28;100076.23;;;10.73;54.92
35307;BME280;21420;52.196;21.416;2022-09-09T00:23:34;100075.23;;;10.72;55.07
35307;BME280;21420;52.196;21.416;2022-09-09T00:32:14;100062.54;;;10.73;55.67
35307;BME280;21420;52.196;21.416;2022-09-09T00:34:57;100055.48;;;10.72;55.85
35307;BME280;21420;52.196;21.416;2022-09-09T00:37:31;100061.30;;;10.71;56.07
35307;BME280;21420;52.196;21.416;2022-09-09T00:40:01;100054.33;;;10.73;56.22
35307;BME280;21420;52.196;21.416;2022-09-09T00:42:36;100049.21;;;10.72;56.38
35307;BME280;21420;52.196;21.416;2022-09-09T00:48:10;100049.64;;;10.74;56.65
35307;BME280;21420;52.196;21.416;2022-09-09T00:50:43;100042.25;;;10.74;56.77
35307;BME280;21420;52.196;21.416;2022-09-09T00:56:14;100049.55;;;10.76;57.06
35307;BME280;21420;52.196;21.416;2022-09-09T00:58:58;100042.25;;;10.74;57.18
35307;BME280;21420;52.196;21.416;2022-09-09T01:01:31;100046.81;;;10.76;57.25
35307;BME280;21420;52.196;21.416;2022-09-09T01:03:57;100041.55;;;10.77;57.39
35307;BME280;21420;52.196;21.416;2022-09-09T01:06:33;100038.02;;;10.77;57.47
35307;BME280;21420;52.196;21.416;2022-09-09T01:09:12;100039.72;;;10.75;57.63
35307;BME280;21420;52.196;21.416;2022-09-09T01:12:02;100036.86;;;10.78;57.71
35307;BME280;21420;52.196;21.416;2022-09-09T01:20:26;100032.53;;;10.83;58.18
35307;BME280;21420;52.196;21.416;2022-09-09T01:26:25;100043.91;;;10.85;58.37
35307;BME280;21420;52.196;21.416;2022-09-09T01:28:54;100046.44;;;10.84;58.47
35307;BME280;21420;52.196;21.416;2022-09-09T01:31:32;100040.17;;;10.83;58.59
35307;BME280;21420;52.196;21.416;2022-09-09T01:34:00;100032.17;;;10.84;58.63
35307;BME280;21420;52.196;21.416;2022-09-09T01:36:37;100043.48;;;10.83;58.71
35307;BME280;21420;52.196;21.416;2022-09-09T01:39:10;100046.44;;;10.84;58.91
35307;BME280;21420;52.196;21.416;2022-09-09T01:41:38;100040.05;;;10.86;59.05
35307;BME280;21420;52.196;21.416;2022-09-09T01:44:09;100042.09;;;10.89;59.23
35307;BME280;21420;52.196;21.416;2022-09-09T01:46:38;100039.22;;;10.92;59.27
35307;BME280;21420;52.196;21.416;2022-09-09T01:49:08;100040.70;;;10.95;59.39
35307;BME280;21420;52.196;21.416;2022-09-09T01:51:36;100037.39;;;10.96;59.45
35307;BME280;21420;52.196;21.416;2022-09-09T01:54:06;100028.38;;;10.95;59.49
35307;BME280;21420;52.196;21.416;2022-09-09T02:07:48;100020.36;;;11.02;59.93
35307;BME280;21420;52.196;21.416;2022-09-09T02:10:23;100014.76;;;11.05;59.95
35307;BME280;21420;52.196;21.416;2022-09-09T02:13:02;100023.43;;;11.07;60.02
35307;BME280;21420;52.196;21.416;2022-09-09T02:15:50;100026.05;;;11.10;60.05
35307;BME280;21420;52.196;21.416;2022-09-09T02:18:24;100018.64;;;11.10;60.12
35307;BME280;21420;52.196;21.416;2022-09-09T02:20:52;100023.08;;;11.15;60.20
35307;BME280;21420;52.196;21.416;2022-09-09T02:23:20;100024.32;;;11.17;60.19
35307;BME280;21420;52.196;21.416;2022-09-09T02:25:49;100020.55;;;11.16;60.22
35307;BME280;21420;52.196;21.416;2022-09-09T02:28:20;100021.92;;;11.16;60.15
35307;BME280;21420;52.196;21.416;2022-09-09T02:30:50;100017.59;;;11.15;60.32
35307;BME280;21420;52.196;21.416;2022-09-09T02:33:28;100011.67;;;11.13;60.33
35307;BME280;21420;52.196;21.416;2022-09-09T02:35:58;100014.53;;;11.10;60.35
35307;BME280;21420;52.196;21.416;2022-09-09T02:38:29;100013.63;;;11.06;60.40
35307;BME280;21420;52.196;21.416;2022-09-09T02:41:01;100016.95;;;11.06;60.54
35307;BME280;21420;52.196;21.416;2022-09-09T02:43:33;100022.77;;;11.04;60.62
35307;BME280;21420;52.196;21.416;2022-09-09T02:46:14;100023.11;;;11.02;60.76
35307;BME280;21420;52.196;21.416;2022-09-09T02:49:00;100023.34;;;11.03;60.91
35307;BME280;21420;52.196;21.416;2022-09-09T02:54:37;100030.52;;;11.08;61.13
35307;BME280;21420;52.196;21.416;2022-09-09T02:59:37;100025.12;;;11.12;61.31
35307;BME280;21420;52.196;21.416;2022-09-09T03:02:04;100026.16;;;11.13;61.44
35307;BME280;21420;52.196;21.416;2022-09-09T03:04:31;100029.02;;;11.17;61.49
35307;BME280;21420;52.196;21.416;2022-09-09T03:06:58;100022.84;;;11.14;61.43
35307;BME280;21420;52.196;21.416;2022-09-09T03:09:25;100021.92;;;11.16;61.54
35307;BME280;21420;52.196;21.416;2022-09-09T03:11:54;100022.82;;;11.20;61.56
35307;BME280;21420;52.196;21.416;2022-09-09T03:14:22;100023.48;;;11.23;61.66
35307;BME280;21420;52.196;21.416;2022-09-09T03:16:51;100025.64;;;11.23;61.69
35307;BME280;21420;52.196;21.416;2022-09-09T03:19:19;100017.42;;;11.23;61.79
35307;BME280;21420;52.196;21.416;2022-09-09T03:21:47;100011.84;;;11.26;61.86
35307;BME280;21420;52.196;21.416;2022-09-09T03:24:14;100012.84;;;11.28;61.86
35307;BME280;21420;52.196;21.416;2022-09-09T03:26:41;100017.65;;;11.31;61.91
35307;BME280;21420;52.196;21.416;2022-09-09T03:29:11;100017.07;;;11.31;61.98
35307;BME280;21420;52.196;21.416;2022-09-09T03:31:39;100017.52;;;11.33;62.06
35307;BME280;21420;52.196;21.416;2022-09-09T03:34:07;100021.39;;;11.32;62.04
35307;BME280;21420;52.196;21.416;2022-09-09T03:36:34;100027.24;;;11.31;62.07
35307;BME280;21420;52.196;21.416;2022-09-09T03:39:00;100019.47;;;11.33;62.16
35307;BME280;21420;52.196;21.416;2022-09-09T03:41:29;100012.70;;;11.36;62.25
35307;BME280;21420;52.196;21.416;2022-09-09T03:43:57;100015.68;;;11.37;62.24
35307;BME280;21420;52.196;21.416;2022-09-09T03:46:25;100015.89;;;11.38;62.39
35307;BME280;21420;52.196;21.416;2022-09-09T03:48:52;100014.76;;;11.39;62.42
35307;BME280;21420;52.196;21.416;2022-09-09T03:51:19;100009.61;;;11.38;62.42
35307;BME280;21420;52.196;21.416;2022-09-09T03:53:46;100015.31;;;11.39;62.48
35307;BME280;21420;52.196;21.416;2022-09-09T03:56:12;100014.97;;;11.40;62.57
35307;BME280;21420;52.196;21.416;2022-09-09T03:58:38;100014.50;;;11.44;62.60
35307;BME280;21420;52.196;21.416;2022-09-09T04:01:09;100013.91;;;11.45;62.64
35307;BME280;21420;52.196;21.416;2022-09-09T04:03:43;100007.95;;;11.49;62.70
35307;BME280;21420;52.196;21.416;2022-09-09T04:06:11;100011.59;;;11.53;62.73
35307;BME280;21420;52.196;21.416;2022-09-09T04:08:41;100006.11;;;11.53;62.75
35307;BME280;21420;52.196;21.416;2022-09-09T04:11:07;100005.67;;;11.51;62.76
35307;BME280;21420;52.196;21.416;2022-09-09T04:13:36;100013.31;;;11.52;62.81
35307;BME280;21420;52.196;21.416;2022-09-09T04:16:05;100009.98;;;11.52;62.84
35307;BME280;21420;52.196;21.416;2022-09-09T04:18:32;100015.71;;;11.53;62.87
35307;BME280;21420;52.196;21.416;2022-09-09T04:21:00;100011.36;;;11.52;62.83
35307;BME280;21420;52.196;21.416;2022-09-09T04:23:28;100017.63;;;11.53;62.89
35307;BME280;21420;52.196;21.416;2022-09-09T04:25:57;100017.42;;;11.52;62.88
35307;BME280;21420;52.196;21.416;2022-09-09T04:28:27;100018.59;;;11.51;62.86
35307;BME280;21420;52.196;21.416;2022-09-09T04:30:55;100027.02;;;11.52;62.93
35307;BME280;21420;52.196;21.416;2022-09-09T04:33:24;100023.36;;;11.54;63.01
35307;BME280;21420;52.196;21.416;2022-09-09T04:35:53;100017.16;;;11.57;63.05
35307;BME280;21420;52.196;21.416;2022-09-09T04:38:20;100017.98;;;11.57;63.08
35307;BME280;21420;52.196;21.416;2022-09-09T04:40:50;100020.35;;;11.59;63.14
35307;BME280;21420;52.196;21.416;2022-09-09T04:43:17;100025.05;;;11.58;63.05
35307;BME280;21420;52.196;21.416;2022-09-09T04:45:49;100028.00;;;11.59;63.11
35307;BME280;21420;52.196;21.416;2022-09-09T04:48:20;100030.64;;;11.62;63.16
35307;BME280;21420;52.196;21.416;2022-09-09T04:50:56;100019.42;;;11.61;63.17
35307;BME280;21420;52.196;21.416;2022-09-09T04:53:33;100025.94;;;11.62;63.26
35307;BME280;21420;52.196;21.416;2022-09-09T04:56:09;100025.02;;;11.64;63.27
35307;BME280;21420;52.196;21.416;2022-09-09T04:58:42;100028.20;;;11.66;63.27
35307;BME280;21420;52.196;21.416;2022-09-09T05:01:15;100025.09;;;11.68;63.31
35307;BME280;21420;52.196;21.416;2022-09-09T05:03:46;100029.45;;;11.69;63.29
35307;BME280;21420;52.196;21.416;2022-09-09T05:06:17;100032.84;;;11.72;63.34
35307;BME280;21420;52.196;21.416;2022-09-09T05:08:46;100033.50;;;11.75;63.41
35307;BME280;21420;52.196;21.416;2022-09-09T05:11:22;100026.30;;;11.77;63.36
35307;BME280;21420;52.196;21.416;2022-09-09T05:13:51;100028.39;;;11.74;63.31
35307;BME280;21420;52.196;21.416;2022-09-09T05:16:20;100034.09;;;11.75;63.36
35307;BME280;21420;52.196;21.416;2022-09-09T05:18:47;100023.80;;;11.78;63.37
35307;BME280;21420;52.196;21.416;2022-09-09T05:21:16;100024.59;;;11.78;63.40
35307;BME280;21420;52.196;21.416;2022-09-09T05:23:44;100032.69;;;11.81;63.45
35307;BME280;21420;52.196;21.416;2022-09-09T05:26:14;100028.30;;;11.86;63.57
35307;BME280;21420;52.196;21.416;2022-09-09T05:28:42;100041.23;;;11.85;63.41
35307;BME280;21420;52.196;21.416;2022-09-09T05:31:10;100038.27;;;11.84;63.40
35307;BME280;21420;52.196;21.416;2022-09-09T05:33:40;100029.47;;;11.85;63.45
35307;BME280;21420;52.196;21.416;2022-09-09T05:36:13;100037.45;;;11.90;63.51
35307;BME280;21420;52.196;21.416;2022-09-09T05:38:43;100038.03;;;11.90;63.48
35307;BME280;21420;52.196;21.416;2022-09-09T05:41:10;100048.43;;;11.90;63.50
35307;BME280;21420;52.196;21.416;2022-09-09T05:43:38;100049.80;;;11.90;63.51
35307;BME280;21420;52.196;21.416;2022-09-09T05:46:16;100045.23;;;11.88;63.47
35307;BME280;21420;52.196;21.416;2022-09-09T05:48:43;100047.05;;;11.84;63.40
35307;BME280;21420;52.196;21.416;2022-09-09T05:51:16;100044.77;;;11.86;63.56
35307;BME280;21420;52.196;21.416;2022-09-09T05:53:47;100041.36;;;11.89;63.61
35307;BME280;21420;52.196;21.416;2022-09-09T05:56:17;100048.77;;;11.88;63.58
35307;BME280;21420;52.196;21.416;2022-09-09T05:58:49;100046.72;;;11.92;63.67
35307;BME280;21420;52.196;21.416;2022-09-09T06:01:32;100051.96;;;11.91;63.58
35307;BME280;21420;52.196;21.416;2022-09-09T06:03:56;100050.59;;;11.91;63.56
35307;BME280;21420;52.196;21.416;2022-09-09T06:06:25;100058.95;;;11.88;63.59
35307;BME280;21420;52.196;21.416;2022-09-09T06:08:56;100051.96;;;11.91;63.73
35307;BME280;21420;52.196;21.416;2022-09-09T06:11:27;100054.02;;;11.94;63.79
35307;BME280;21420;52.196;21.416;2022-09-09T06:13:58;100042.91;;;11.96;63.80
35307;BME280;21420;52.196;21.416;2022-09-09T06:16:27;100051.22;;;12.00;63.89
35307;BME280;21420;52.196;21.416;2022-09-09T06:18:56;100052.90;;;12.04;63.87
35307;BME280;21420;52.196;21.416;2022-09-09T06:21:26;100058.05;;;12.06;63.90
35307;BME280;21420;52.196;21.416;2022-09-09T06:23:53;100062.50;;;12.04;63.82
35307;BME280;21420;52.196;21.416;2022-09-09T06:26:22;100066.20;;;12.02;63.88
35307;BME280;21420;52.196;21.416;2022-09-09T06:28:51;100066.06;;;12.05;63.96
35307;BME280;21420;52.196;21.416;2022-09-09T06:31:21;100064.56;;;12.07;63.98
35307;BME280;21420;52.196;21.416;2022-09-09T06:33:52;100061.02;;;12.07;63.89
35307;BME280;21420;52.196;21.416;2022-09-09T06:36:21;100070.84;;;12.08;63.96
35307;BME280;21420;52.196;21.416;2022-09-09T06:38:49;100077.91;;;12.09;63.96
35307;BME280;21420;52.196;21.416;2022-09-09T06:41:18;100078.73;;;12.10;63.97
35307;BME280;21420;52.196;21.416;2022-09-09T06:43:46;100077.22;;;12.12;64.04
35307;BME280;21420;52.196;21.416;2022-09-09T06:46:17;100075.71;;;12.15;64.07
35307;BME280;21420;52.196;21.416;2022-09-09T06:48:45;100085.63;;;12.19;64.13
35307;BME280;21420;52.196;21.416;2022-09-09T06:51:19;100084.59;;;12.18;63.93
35307;BME280;21420;52.196;21.416;2022-09-09T06:53:50;100085.19;;;12.17;63.96
35307;BME280;21420;52.196;21.416;2022-09-09T06:56:20;100091.91;;;12.20;63.94
35307;BME280;21420;52.196;21.416;2022-09-09T06:58:55;100087.79;;;12.20;64.04
35307;BME280;21420;52.196;21.416;2022-09-09T07:01:26;100084.25;;;12.19;64.00
35307;BME280;21420;52.196;21.416;2022-09-09T07:03:56;100090.77;;;12.21;64.04
35307;BME280;21420;52.196;21.416;2022-09-09T07:06:27;100085.59;;;12.25;64.15
35307;BME280;21420;52.196;21.416;2022-09-09T07:08:58;100094.34;;;12.31;64.12
35307;BME280;21420;52.196;21.416;2022-09-09T07:11:28;100095.03;;;12.34;64.17
35307;BME280;21420;52.196;21.416;2022-09-09T07:13:56;100089.13;;;12.42;64.35
35307;BME280;21420;52.196;21.416;2022-09-09T07:16:25;100094.58;;;12.48;64.35
35307;BME280;21420;52.196;21.416;2022-09-09T07:18:54;100092.27;;;12.50;64.29
35307;BME280;21420;52.196;21.416;2022-09-09T07:21:24;100095.81;;;12.50;64.22
35307;BME280;21420;52.196;21.416;2022-09-09T07:23:53;100093.06;;;12.50;64.30
35307;BME280;21420;52.196;21.416;2022-09-09T07:26:24;100095.33;;;12.55;64.47
35307;BME280;21420;52.196;21.416;2022-09-09T07:28:52;100102.25;;;12.58;64.30
35307;BME280;21420;52.196;21.416;2022-09-09T07:31:28;100103.87;;;12.59;64.22
35307;BME280;21420;52.196;21.416;2022-09-09T07:33:56;100097.66;;;12.62;64.32
35307;BME280;21420;52.196;21.416;2022-09-09T07:36:29;100108.50;;;12.65;64.31
35307;BME280;21420;52.196;21.416;2022-09-09T07:39:04;100114.13;;;12.62;64.14
35307;BME280;21420;52.196;21.416;2022-09-09T07:41:40;100120.93;;;12.59;64.11
35307;BME280;21420;52.196;21.416;2022-09-09T07:44:13;100115.64;;;12.60;64.20
35307;BME280;21420;52.196;21.416;2022-09-09T07:46:43;100125.91;;;12.63;64.28
35307;BME280;21420;52.196;21.416;2022-09-09T07:49:12;100123.47;;;12.67;64.31
35307;BME280;21420;52.196;21.416;2022-09-09T07:51:42;100123.86;;;12.76;64.45
35307;BME280;21420;52.196;21.416;2022-09-09T07:54:13;100113.17;;;12.80;64.45
35307;BME280;21420;52.196;21.416;2022-09-09T07:56:43;100121.44;;;12.90;64.51
35307;BME280;21420;52.196;21.416;2022-09-09T07:59:10;100127.67;;;12.97;64.48
35307;BME280;21420;52.196;21.416;2022-09-09T08:01:48;100126.54;;;12.98;64.49
35307;BME280;21420;52.196;21.416;2022-09-09T08:04:19;100125.41;;;13.08;64.50
35307;BME280;21420;52.196;21.416;2022-09-09T08:06:49;100134.65;;;13.10;64.33
35307;BME280;21420;52.196;21.416;2022-09-09T08:09:19;100136.31;;;13.05;64.24
35307;BME280;21420;52.196;21.416;2022-09-09T08:11:47;100140.92;;;13.01;64.28
35307;BME280;21420;52.196;21.416;2022-09-09T08:14:14;100145.28;;;13.02;64.24
35307;BME280;21420;52.196;21.416;2022-09-09T08:16:43;100143.67;;;13.01;64.31
35307;BME280;21420;52.196;21.416;2022-09-09T08:19:12;100142.73;;;13.03;64.42
35307;BME280;21420;52.196;21.416;2022-09-09T08:21:40;100144.77;;;13.06;64.40
35307;BME280;21420;52.196;21.416;2022-09-09T08:24:09;100144.86;;;13.09;64.41
35307;BME280;21420;52.196;21.416;2022-09-09T08:26:44;100139.52;;;13.17;64.35
35307;BME280;21420;52.196;21.416;2022-09-09T08:29:14;100143.19;;;13.15;64.35
35307;BME280;21420;52.196;21.416;2022-09-09T08:34:19;100142.75;;;13.12;64.24
35307;BME280;21420;52.196;21.416;2022-09-09T08:36:49;100144.95;;;13.23;64.50
35307;BME280;21420;52.196;21.416;2022-09-09T08:39:19;100146.07;;;13.28;64.27
35307;BME280;21420;52.196;21.416;2022-09-09T08:50:38;100141.03;;;13.24;64.42
35307;BME280;21420;52.196;21.416;2022-09-09T08:53:20;100143.23;;;13.24;64.43
35307;BME280;21420;52.196;21.416;2022-09-09T08:55:58;100156.37;;;13.31;64.42
35307;BME280;21420;52.196;21.416;2022-09-09T08:58:35;100160.05;;;13.29;64.39
35307;BME280;21420;52.196;21.416;2022-09-09T09:07:42;100167.59;;;13.16;64.22
35307;BME280;21420;52.196;21.416;2022-09-09T09:12:58;100165.72;;;13.20;64.23
35307;BME280;21420;52.196;21.416;2022-09-09T09:15:32;100171.70;;;13.16;64.26
35307;BME280;21420;52.196;21.416;2022-09-09T09:18:04;100177.55;;;13.15;64.18
35307;BME280;21420;52.196;21.416;2022-09-09T09:20:47;100178.72;;;13.13;64.25
35307;BME280;21420;52.196;21.416;2022-09-09T09:23:26;100182.70;;;13.16;64.41
35307;BME280;21420;52.196;21.416;2022-09-09T09:26:06;100183.45;;;13.23;64.55
35307;BME280;21420;52.196;21.416;2022-09-09T09:28:31;100195.09;;;13.26;64.23
35307;BME280;21420;52.196;21.416;2022-09-09T09:31:06;100196.55;;;13.20;64.25
35307;BME280;21420;52.196;21.416;2022-09-09T09:33:53;100188.30;;;13.20;64.30
35307;BME280;21420;52.196;21.416;2022-09-09T09:36:34;100197.28;;;13.26;64.45
35307;BME280;21420;52.196;21.416;2022-09-09T09:39:03;100185.02;;;13.24;64.37
35307;BME280;21420;52.196;21.416;2022-09-09T09:47:13;100195.96;;;13.20;64.36
35307;BME280;21420;52.196;21.416;2022-09-09T09:49:54;100199.94;;;13.23;64.38
35307;BME280;21420;52.196;21.416;2022-09-09T09:52:26;100196.55;;;13.20;64.44
35307;BME280;21420;52.196;21.416;2022-09-09T09:54:57;100201.41;;;13.26;64.72
35307;BME280;21420;52.196;21.416;2022-09-09T09:57:30;100199.34;;;13.29;64.49
35307;BME280;21420;52.196;21.416;2022-09-09T10:00:17;100192.46;;;13.29;64.58
35307;BME280;21420;52.196;21.416;2022-09-09T10:02:48;100197.47;;;13.33;64.68
35307;BME280;21420;52.196;21.416;2022-09-09T10:05:25;100197.48;;;13.43;64.81
35307;BME280;21420;52.196;21.416;2022-09-09T10:08:11;100198.95;;;13.47;64.61
35307;BME280;21420;52.196;21.416;2022-09-09T10:10:57;100197.72;;;13.44;64.64
35307;BME280;21420;52.196;21.416;2022-09-09T10:19:36;100193.50;;;13.50;64.65
35307;BME280;21420;52.196;21.416;2022-09-09T10:25:03;100183.81;;;13.66;64.65
35307;BME280;21420;52.196;21.416;2022-09-09T10:27:50;100196.43;;;13.67;64.65
35307;BME280;21420;52.196;21.416;2022-09-09T10:36:24;100211.80;;;13.78;64.74
35307;BME280;21420;52.196;21.416;2022-09-09T10:47:27;100216.13;;;13.69;64.50
35307;BME280;21420;52.196;21.416;2022-09-09T10:50:23;100227.92;;;13.70;64.51
35307;BME280;21420;52.196;21.416;2022-09-09T10:53:08;100226.89;;;13.68;64.53
35307;BME280;21420;52.196;21.416;2022-09-09T10:55:36;100225.61;;;13.62;64.48
35307;BME280;21420;52.196;21.416;2022-09-09T10:58:05;100232.34;;;13.65;64.68
35307;BME280;21420;52.196;21.416;2022-09-09T11:00:40;100234.51;;;13.65;64.57
35307;BME280;21420;52.196;21.416;2022-09-09T11:03:15;100226.84;;;13.65;64.75
35307;BME280;21420;52.196;21.416;2022-09-09T11:05:51;100236.53;;;13.68;64.56
35307;BME280;21420;52.196;21.416;2022-09-09T11:08:29;100247.23;;;13.64;64.60
35307;BME280;21420;52.196;21.416;2022-09-09T11:13:46;100268.02;;;13.61;64.75
35307;BME280;21420;52.196;21.416;2022-09-09T11:16:56;100274.55;;;13.63;64.83
35307;BME280;21420;52.196;21.416;2022-09-09T11:19:40;100276.91;;;13.64;64.81
35307;BME280;21420;52.196;21.416;2022-09-09T11:22:08;100277.50;;;13.64;64.81
35307;BME280;21420;52.196;21.416;2022-09-09T11:24:59;100270.13;;;13.68;64.95
35307;BME280;21420;52.196;21.416;2022-09-09T11:34:08;100265.36;;;13.74;64.96
35307;BME280;21420;52.196;21.416;2022-09-09T11:36:54;100272.33;;;13.78;64.96
35307;BME280;21420;52.196;21.416;2022-09-09T11:44:44;100266.83;;;13.78;64.95
35307;BME280;21420;52.196;21.416;2022-09-09T11:47:31;100271.25;;;13.83;65.11
35307;BME280;21420;52.196;21.416;2022-09-09T11:50:10;100280.50;;;13.84;64.99
35307;BME280;21420;52.196;21.416;2022-09-09T11:52:45;100282.02;;;13.82;64.93
35307;BME280;21420;52.196;21.416;2022-09-09T11:55:33;100283.55;;;13.79;64.99
35307;BME280;21420;52.196;21.416;2022-09-09T11:58:02;100285.70;;;13.80;64.92
35307;BME280;21420;52.196;21.416;2022-09-09T12:00:42;100282.16;;;13.79;65.04
35307;BME280;21420;52.196;21.416;2022-09-09T12:04:14;100284.19;;;13.82;65.05
35307;BME280;21420;52.196;21.416;2022-09-09T12:06:29;100275.67;;;13.87;65.21
35307;BME280;21420;52.196;21.416;2022-09-09T12:09:28;100275.58;;;13.93;65.14
35307;BME280;21420;52.196;21.416;2022-09-09T12:17:45;100267.70;;;14.02;65.24
35307;BME280;21420;52.196;21.416;2022-09-09T12:20:17;100281.31;;;14.04;65.04
35307;BME280;21420;52.196;21.416;2022-09-09T12:25:49;100280.44;;;14.00;64.98
35307;BME280;21420;52.196;21.416;2022-09-09T12:31:18;100273.70;;;13.98;64.84
35307;BME280;21420;52.196;21.416;2022-09-09T12:33:54;100271.53;;;14.07;65.33
35307;BME280;21420;52.196;21.416;2022-09-09T12:36:27;100281.34;;;14.14;65.31
35307;BME280;21420;52.196;21.416;2022-09-09T12:38:56;100280.45;;;14.20;65.26
35307;BME280;21420;52.196;21.416;2022-09-09T12:41:27;100292.70;;;14.22;65.17
35307;BME280;21420;52.196;21.416;2022-09-09T12:44:09;100287.04;;;14.25;65.16
35307;BME280;21420;52.196;21.416;2022-09-09T12:46:42;100291.17;;;14.25;65.01
35307;BME280;21420;52.196;21.416;2022-09-09T12:52:02;100287.63;;;14.24;64.99
35307;BME280;21420;52.196;21.416;2022-09-09T12:54:38;100287.27;;;14.26;65.04
35307;BME280;21420;52.196;21.416;2022-09-09T12:57:05;100289.07;;;14.18;64.81
35307;BME280;21420;52.196;21.416;2022-09-09T12:59:39;100287.20;;;14.12;64.82
35307;BME280;21420;52.196;21.416;2022-09-09T13:02:22;100279.23;;;14.07;64.84
35307;BME280;21420;52.196;21.416;2022-09-09T13:04:53;100272.70;;;14.06;64.95
35307;BME280;21420;52.196;21.416;2022-09-09T13:07:23;100273.78;;;14.11;65.18
35307;BME280;21420;52.196;21.416;2022-09-09T13:09:51;100260.54;;;14.16;65.28
35307;BME280;21420;52.196;21.416;2022-09-09T13:12:23;100262.11;;;14.27;65.33
35307;BME280;21420;52.196;21.416;2022-09-09T13:14:53;100262.62;;;14.33;65.18
35307;BME280;21420;52.196;21.416;2022-09-09T13:17:26;100263.28;;;14.26;65.03
35307;BME280;21420;52.196;21.416;2022-09-09T13:19:53;100268.44;;;14.28;64.88
35307;BME280;21420;52.196;21.416;2022-09-09T13:27:40;100285.46;;;14.24;64.80
35307;BME280;21420;52.196;21.416;2022-09-09T13:30:29;100283.41;;;14.21;64.92
35307;BME280;21420;52.196;21.416;2022-09-09T13:35:56;100278.63;;;14.27;65.18
35307;BME280;21420;52.196;21.416;2022-09-09T13:38:23;100267.70;;;14.31;65.14
35307;BME280;21420;52.196;21.416;2022-09-09T13:43:28;100273.27;;;14.25;64.97
35307;BME280;21420;52.196;21.416;2022-09-09T13:45:59;100260.61;;;14.30;65.18
35307;BME280;21420;52.196;21.416;2022-09-09T13:48:28;100260.61;;;14.30;65.18
35307;BME280;21420;52.196;21.416;2022-09-09T13:51:03;100265.14;;;14.32;65.02
35307;BME280;21420;52.196;21.416;2022-09-09T13:53:28;100266.16;;;14.33;65.04
35307;BME280;21420;52.196;21.416;2022-09-09T13:55:56;100275.88;;;14.27;64.86
35307;BME280;21420;52.196;21.416;2022-09-09T13:58:24;100273.57;;;14.20;64.86
35307;BME280;21420;52.196;21.416;2022-09-09T14:00:54;100273.13;;;14.18;64.98
35307;BME280;21420;52.196;21.416;2022-09-09T14:03:20;100263.06;;;14.15;64.91
35307;BME280;21420;52.196;21.416;2022-09-09T14:05:47;100260.95;;;14.09;64.92
35307;BME280;21420;52.196;21.416;2022-09-09T14:08:20;100268.22;;;14.07;65.12
35307;BME280;21420;52.196;21.416;2022-09-09T14:10:47;100262.19;;;14.11;65.27
35307;BME280;21420;52.196;21.416;2022-09-09T14:13:14;100269.16;;;14.15;65.31
35307;BME280;21420;52.196;21.416;2022-09-09T14:15:41;100273.13;;;14.18;65.24
35307;BME280;21420;52.196;21.416;2022-09-09T14:18:11;100271.03;;;14.11;65.04
35307;BME280;21420;52.196;21.416;2022-09-09T14:20:39;100274.81;;;14.03;64.91
35307;BME280;21420;52.196;21.416;2022-09-09T14:23:10;100281.17;;;13.97;65.03
35307;BME280;21420;52.196;21.416;2022-09-09T14:25:43;100282.11;;;13.95;65.11
35307;BME280;21420;52.196;21.416;2022-09-09T14:28:13;100282.11;;;13.95;65.15
35307;BME280;21420;52.196;21.416;2022-09-09T14:30:41;100287.03;;;13.95;65.29
35307;BME280;21420;52.196;21.416;2022-09-09T14:33:11;100289.78;;;13.95;65.27
35307;BME280;21420;52.196;21.416;2022-09-09T14:35:40;100288.20;;;13.94;65.21
35307;BME280;21420;52.196;21.416;2022-09-09T14:38:08;100288.99;;;13.95;65.30
35307;BME280;21420;52.196;21.416;2022-09-09T14:40:36;100291.25;;;13.99;65.40
35307;BME280;21420;52.196;21.416;2022-09-09T14:43:05;100285.01;;;14.02;65.35
35307;BME280;21420;52.196;21.416;2022-09-09T14:45:31;100280.32;;;14.03;65.46
35307;BME280;21420;52.196;21.416;2022-09-09T14:47:58;100282.64;;;14.01;65.39
35307;BME280;21420;52.196;21.416;2022-09-09T14:50:25;100281.32;;;13.94;65.19
35307;BME280;21420;52.196;21.416;2022-09-09T14:52:52;100282.98;;;13.89;65.28
35307;BME280;21420;52.196;21.416;2022-09-09T14:55:18;100286.09;;;13.88;65.23
35307;BME280;21420;52.196;21.416;2022-09-09T14:57:44;100295.28;;;13.86;65.31
35307;BME280;21420;52.196;21.416;2022-09-09T15:00:14;100295.08;;;13.85;65.30
35307;BME280;21420;52.196;21.416;2022-09-09T15:02:41;100284.72;;;13.88;65.45
35307;BME280;21420;52.196;21.416;2022-09-09T15:05:08;100290.72;;;13.93;65.56
35307;BME280;21420;52.196;21.416;2022-09-09T15:07:36;100281.47;;;14.02;65.68
35307;BME280;21420;52.196;21.416;2022-09-09T15:10:03;100278.65;;;14.08;65.61
35307;BME280;21420;52.196;21.416;2022-09-09T15:12:31;100280.23;;;14.09;65.49
35307;BME280;21420;52.196;21.416;2022-09-09T15:14:59;100280.47;;;14.10;65.43
35307;BME280;21420;52.196;21.416;2022-09-09T15:17:25;100280.47;;;14.10;65.57
35307;BME280;21420;52.196;21.416;2022-09-09T15:19:53;100285.76;;;14.19;65.72
35307;BME280;21420;52.196;21.416;2022-09-09T15:22:22;100280.44;;;14.29;65.78
35307;BME280;21420;52.196;21.416;2022-09-09T15:24:50;100279.87;;;14.40;65.81
35307;BME280;21420;52.196;21.416;2022-09-09T15:27:17;100278.80;;;14.34;65.43